sensor_id;sensor_type;location;lat;lon;timestamp;P1;durP1;ratioP1;P2;durP2;ratioP2
23519;SDS011;11936;50.820;4.336;2023-09-30T00:01:17;8.50;;;5.63;;
23519;SDS011;11936;50.820;4.336;2023-09-30T00:03:43;8.50;;;5.65;;
23519;SDS011;11936;50.820;4.336;2023-09-30T00:06:09;8.20;;;5.75;;
23519;SDS011;11936;50.820;4.336;2023-09-30T00:08:35;9.05;;;6.93;;
23519;SDS011;11936;50.820;4.336;2023-09-30T00:11:01;11.82;;;5.72;;
23519;SDS011;11936;50.820;4.336;2023-09-30T00:13:27;8.88;;;5.55;;
23519;SDS011;11936;50.820;4.336;2023-09-30T00:15:53;9.57;;;6.50;;
23519;SDS011;11936;50.820;4.336;2023-09-30T00:18:18;10.27;;;6.72;;
23519;SDS011;11936;50.820;4.336;2023-09-30T00:20:44;10.07;;;6.32;;
23519;SDS011;11936;50.820;4.336;2023-09-30T00:23:10;10.68;;;6.97;;
23519;SDS011;11936;50.820;4.336;2023-09-30T00:25:35;9.45;;;5.82;;
23519;SDS011;11936;50.820;4.336;2023-09-30T00:28:01;8.88;;;6.30;;
23519;SDS011;11936;50.820;4.336;2023-09-30T00:30:27;12.02;;;6.43;;
23519;SDS011;11936;50.820;4.336;2023-09-30T00:32:52;9.43;;;6.07;;
23519;SDS011;11936;50.820;4.336;2023-09-30T00:35:18;14.68;;;7.38;;
23519;SDS011;11936;50.820;4.336;2023-09-30T00:37:44;9.10;;;6.13;;
23519;SDS011;11936;50.820;4.336;2023-09-30T00:40:09;9.27;;;6.10;;
23519;SDS011;11936;50.820;4.336;2023-09-30T00:42:37;8.13;;;5.35;;
23519;SDS011;11936;50.820;4.336;2023-09-30T00:45:03;7.47;;;5.32;;
23519;SDS011;11936;50.820;4.336;2023-09-30T00:47:30;11.40;;;6.70;;
23519;SDS011;11936;50.820;4.336;2023-09-30T00:49:56;11.98;;;6.68;;
23519;SDS011;11936;50.820;4.336;2023-09-30T00:52:22;11.23;;;6.53;;
23519;SDS011;11936;50.820;4.336;2023-09-30T00:54:48;10.93;;;6.40;;
23519;SDS011;11936;50.820;4.336;2023-09-30T00:57:15;7.47;;;5.25;;
23519;SDS011;11936;50.820;4.336;2023-09-30T00:59:43;7.88;;;5.78;;
23519;SDS011;11936;50.820;4.336;2023-09-30T01:02:09;9.35;;;5.88;;
23519;SDS011;11936;50.820;4.336;2023-09-30T01:04:34;8.18;;;5.68;;
23519;SDS011;11936;50.820;4.336;2023-09-30T01:07:01;15.48;;;6.72;;
23519;SDS011;11936;50.820;4.336;2023-09-30T01:09:27;8.65;;;6.10;;
23519;SDS011;11936;50.820;4.336;2023-09-30T01:11:53;9.38;;;5.55;;
23519;SDS011;11936;50.820;4.336;2023-09-30T01:16:50;8.52;;;5.38;;
23519;SDS011;11936;50.820;4.336;2023-09-30T01:19:16;11.52;;;5.28;;
23519;SDS011;11936;50.820;4.336;2023-09-30T01:21:41;12.40;;;6.10;;
23519;SDS011;11936;50.820;4.336;2023-09-30T01:24:13;10.27;;;6.00;;
23519;SDS011;11936;50.820;4.336;2023-09-30T01:26:39;12.88;;;6.45;;
23519;SDS011;11936;50.820;4.336;2023-09-30T01:29:04;9.80;;;5.55;;
23519;SDS011;11936;50.820;4.336;2023-09-30T01:31:30;11.25;;;5.85;;
23519;SDS011;11936;50.820;4.336;2023-09-30T01:33:56;11.48;;;5.70;;
23519;SDS011;11936;50.820;4.336;2023-09-30T01:36:22;10.80;;;5.20;;
23519;SDS011;11936;50.820;4.336;2023-09-30T01:38:47;12.45;;;5.75;;
23519;SDS011;11936;50.820;4.336;2023-09-30T01:41:13;12.18;;;5.72;;
23519;SDS011;11936;50.820;4.336;2023-09-30T01:43:38;9.95;;;5.95;;
23519;SDS011;11936;50.820;4.336;2023-09-30T01:46:04;11.07;;;5.28;;
23519;SDS011;11936;50.820;4.336;2023-09-30T01:48:31;10.60;;;5.57;;
23519;SDS011;11936;50.820;4.336;2023-09-30T01:50:56;7.15;;;4.57;;
23519;SDS011;11936;50.820;4.336;2023-09-30T01:53:22;13.35;;;5.80;;
23519;SDS011;11936;50.820;4.336;2023-09-30T01:55:48;9.88;;;5.30;;
23519;SDS011;11936;50.820;4.336;2023-09-30T01:58:14;12.50;;;6.00;;
23519;SDS011;11936;50.820;4.336;2023-09-30T02:00:39;8.25;;;4.97;;
23519;SDS011;11936;50.820;4.336;2023-09-30T02:03:05;12.98;;;5.90;;
23519;SDS011;11936;50.820;4.336;2023-09-30T02:05:30;10.85;;;5.70;;
23519;SDS011;11936;50.820;4.336;2023-09-30T02:07:56;7.70;;;6.15;;
23519;SDS011;11936;50.820;4.336;2023-09-30T02:10:22;11.77;;;5.60;;
23519;SDS011;11936;50.820;4.336;2023-09-30T02:12:47;9.60;;;5.65;;
23519;SDS011;11936;50.820;4.336;2023-09-30T02:15:13;11.80;;;6.15;;
23519;SDS011;11936;50.820;4.336;2023-09-30T02:17:39;12.45;;;6.18;;
23519;SDS011;11936;50.820;4.336;2023-09-30T02:20:10;16.42;;;6.53;;
23519;SDS011;11936;50.820;4.336;2023-09-30T02:22:37;7.95;;;5.45;;
23519;SDS011;11936;50.820;4.336;2023-09-30T02:25:04;16.65;;;6.40;;
23519;SDS011;11936;50.820;4.336;2023-09-30T02:27:32;16.13;;;5.70;;
23519;SDS011;11936;50.820;4.336;2023-09-30T02:29:58;12.35;;;5.32;;
23519;SDS011;11936;50.820;4.336;2023-09-30T02:32:25;14.80;;;5.32;;
23519;SDS011;11936;50.820;4.336;2023-09-30T02:34:50;10.40;;;5.85;;
23519;SDS011;11936;50.820;4.336;2023-09-30T02:37:16;13.75;;;5.68;;
23519;SDS011;11936;50.820;4.336;2023-09-30T02:39:43;15.25;;;6.35;;
23519;SDS011;11936;50.820;4.336;2023-09-30T02:42:09;11.18;;;5.70;;
23519;SDS011;11936;50.820;4.336;2023-09-30T02:44:35;13.70;;;5.13;;
23519;SDS011;11936;50.820;4.336;2023-09-30T02:47:01;14.48;;;5.88;;
23519;SDS011;11936;50.820;4.336;2023-09-30T02:49:27;10.60;;;5.90;;
23519;SDS011;11936;50.820;4.336;2023-09-30T02:51:52;16.23;;;5.78;;
23519;SDS011;11936;50.820;4.336;2023-09-30T02:54:18;15.02;;;5.60;;
23519;SDS011;11936;50.820;4.336;2023-09-30T02:56:44;18.27;;;6.55;;
23519;SDS011;11936;50.820;4.336;2023-09-30T02:59:11;10.07;;;5.72;;
23519;SDS011;11936;50.820;4.336;2023-09-30T03:01:38;13.27;;;6.63;;
23519;SDS011;11936;50.820;4.336;2023-09-30T03:04:03;15.45;;;6.38;;
23519;SDS011;11936;50.820;4.336;2023-09-30T03:06:32;11.82;;;5.95;;
23519;SDS011;11936;50.820;4.336;2023-09-30T03:09:00;11.52;;;6.30;;
23519;SDS011;11936;50.820;4.336;2023-09-30T03:11:27;17.83;;;6.57;;
23519;SDS011;11936;50.820;4.336;2023-09-30T03:13:53;13.65;;;6.57;;
23519;SDS011;11936;50.820;4.336;2023-09-30T03:16:20;13.38;;;7.18;;
23519;SDS011;11936;50.820;4.336;2023-09-30T03:18:45;11.75;;;6.50;;
23519;SDS011;11936;50.820;4.336;2023-09-30T03:21:14;16.05;;;6.57;;
23519;SDS011;11936;50.820;4.336;2023-09-30T03:23:41;13.68;;;6.07;;
23519;SDS011;11936;50.820;4.336;2023-09-30T03:26:07;13.45;;;7.30;;
23519;SDS011;11936;50.820;4.336;2023-09-30T03:28:35;13.23;;;6.60;;
23519;SDS011;11936;50.820;4.336;2023-09-30T03:31:02;12.98;;;6.72;;
23519;SDS011;11936;50.820;4.336;2023-09-30T03:33:30;18.15;;;6.47;;
23519;SDS011;11936;50.820;4.336;2023-09-30T03:35:57;13.50;;;6.15;;
23519;SDS011;11936;50.820;4.336;2023-09-30T03:38:23;16.27;;;6.57;;
23519;SDS011;11936;50.820;4.336;2023-09-30T03:40:50;13.73;;;6.60;;
23519;SDS011;11936;50.820;4.336;2023-09-30T03:43:18;12.15;;;6.40;;
23519;SDS011;11936;50.820;4.336;2023-09-30T03:45:44;15.43;;;7.68;;
23519;SDS011;11936;50.820;4.336;2023-09-30T03:48:10;13.27;;;6.88;;
23519;SDS011;11936;50.820;4.336;2023-09-30T03:50:36;20.23;;;7.32;;
23519;SDS011;11936;50.820;4.336;2023-09-30T03:53:03;10.50;;;7.45;;
23519;SDS011;11936;50.820;4.336;2023-09-30T03:55:30;21.50;;;7.80;;
23519;SDS011;11936;50.820;4.336;2023-09-30T03:57:58;17.85;;;8.10;;
23519;SDS011;11936;50.820;4.336;2023-09-30T04:00:24;13.82;;;7.47;;
23519;SDS011;11936;50.820;4.336;2023-09-30T04:02:50;16.60;;;7.65;;
23519;SDS011;11936;50.820;4.336;2023-09-30T04:05:19;18.52;;;7.57;;
23519;SDS011;11936;50.820;4.336;2023-09-30T04:07:51;13.82;;;7.95;;
23519;SDS011;11936;50.820;4.336;2023-09-30T04:10:16;20.92;;;8.32;;
23519;SDS011;11936;50.820;4.336;2023-09-30T04:12:42;12.50;;;7.43;;
23519;SDS011;11936;50.820;4.336;2023-09-30T04:15:08;19.65;;;8.15;;
23519;SDS011;11936;50.820;4.336;2023-09-30T04:20:04;13.00;;;6.93;;
23519;SDS011;11936;50.820;4.336;2023-09-30T04:22:36;16.60;;;8.23;;
23519;SDS011;11936;50.820;4.336;2023-09-30T04:25:02;14.55;;;7.75;;
23519;SDS011;11936;50.820;4.336;2023-09-30T04:27:33;16.25;;;9.10;;
23519;SDS011;11936;50.820;4.336;2023-09-30T04:29:59;15.85;;;7.10;;
23519;SDS011;11936;50.820;4.336;2023-09-30T04:32:25;22.45;;;7.82;;
23519;SDS011;11936;50.820;4.336;2023-09-30T04:34:52;17.48;;;7.05;;
23519;SDS011;11936;50.820;4.336;2023-09-30T04:37:18;14.63;;;6.95;;
23519;SDS011;11936;50.820;4.336;2023-09-30T04:39:44;13.02;;;6.70;;
23519;SDS011;11936;50.820;4.336;2023-09-30T04:42:09;16.55;;;7.95;;
23519;SDS011;11936;50.820;4.336;2023-09-30T04:44:36;14.52;;;7.35;;
23519;SDS011;11936;50.820;4.336;2023-09-30T04:47:03;19.38;;;7.15;;
23519;SDS011;11936;50.820;4.336;2023-09-30T04:49:29;15.77;;;6.63;;
23519;SDS011;11936;50.820;4.336;2023-09-30T04:51:55;14.40;;;6.85;;
23519;SDS011;11936;50.820;4.336;2023-09-30T04:54:21;19.52;;;7.57;;
23519;SDS011;11936;50.820;4.336;2023-09-30T04:56:47;24.08;;;9.45;;
23519;SDS011;11936;50.820;4.336;2023-09-30T04:59:13;19.70;;;6.68;;
23519;SDS011;11936;50.820;4.336;2023-09-30T05:01:39;18.35;;;8.63;;
23519;SDS011;11936;50.820;4.336;2023-09-30T05:04:04;22.77;;;7.75;;
23519;SDS011;11936;50.820;4.336;2023-09-30T05:06:31;28.45;;;7.82;;
23519;SDS011;11936;50.820;4.336;2023-09-30T05:08:57;20.08;;;6.93;;
23519;SDS011;11936;50.820;4.336;2023-09-30T05:11:24;16.35;;;7.00;;
23519;SDS011;11936;50.820;4.336;2023-09-30T05:13:49;16.00;;;6.80;;
23519;SDS011;11936;50.820;4.336;2023-09-30T05:16:16;15.73;;;6.65;;
23519;SDS011;11936;50.820;4.336;2023-09-30T05:18:42;14.18;;;5.68;;
23519;SDS011;11936;50.820;4.336;2023-09-30T05:21:08;22.85;;;6.07;;
23519;SDS011;11936;50.820;4.336;2023-09-30T05:23:35;20.90;;;6.28;;
23519;SDS011;11936;50.820;4.336;2023-09-30T05:26:02;15.85;;;6.07;;
23519;SDS011;11936;50.820;4.336;2023-09-30T05:28:27;22.45;;;7.43;;
23519;SDS011;11936;50.820;4.336;2023-09-30T05:30:53;12.48;;;6.55;;
23519;SDS011;11936;50.820;4.336;2023-09-30T05:33:18;15.45;;;6.15;;
23519;SDS011;11936;50.820;4.336;2023-09-30T05:35:44;12.50;;;5.88;;
23519;SDS011;11936;50.820;4.336;2023-09-30T05:38:11;16.23;;;6.47;;
23519;SDS011;11936;50.820;4.336;2023-09-30T05:40:37;20.88;;;7.03;;
23519;SDS011;11936;50.820;4.336;2023-09-30T05:43:03;15.00;;;7.13;;
23519;SDS011;11936;50.820;4.336;2023-09-30T05:45:31;17.48;;;6.60;;
23519;SDS011;11936;50.820;4.336;2023-09-30T05:48:01;13.32;;;6.43;;
23519;SDS011;11936;50.820;4.336;2023-09-30T05:50:30;17.95;;;7.28;;
23519;SDS011;11936;50.820;4.336;2023-09-30T05:52:57;28.63;;;7.53;;
23519;SDS011;11936;50.820;4.336;2023-09-30T05:55:23;20.33;;;6.78;;
23519;SDS011;11936;50.820;4.336;2023-09-30T05:57:50;22.25;;;6.93;;
23519;SDS011;11936;50.820;4.336;2023-09-30T06:00:17;17.92;;;6.25;;
23519;SDS011;11936;50.820;4.336;2023-09-30T06:02:47;13.27;;;6.07;;
23519;SDS011;11936;50.820;4.336;2023-09-30T06:05:14;14.18;;;6.85;;
23519;SDS011;11936;50.820;4.336;2023-09-30T06:07:44;18.23;;;6.63;;
23519;SDS011;11936;50.820;4.336;2023-09-30T06:10:10;17.42;;;6.07;;
23519;SDS011;11936;50.820;4.336;2023-09-30T06:12:36;16.80;;;6.57;;
23519;SDS011;11936;50.820;4.336;2023-09-30T06:15:02;16.15;;;5.95;;
23519;SDS011;11936;50.820;4.336;2023-09-30T06:17:28;20.17;;;7.15;;
23519;SDS011;11936;50.820;4.336;2023-09-30T06:19:54;18.67;;;6.70;;
23519;SDS011;11936;50.820;4.336;2023-09-30T06:22:20;19.65;;;6.72;;
23519;SDS011;11936;50.820;4.336;2023-09-30T06:24:46;15.15;;;6.22;;
23519;SDS011;11936;50.820;4.336;2023-09-30T06:27:13;18.42;;;6.72;;
23519;SDS011;11936;50.820;4.336;2023-09-30T06:29:39;20.83;;;7.13;;
23519;SDS011;11936;50.820;4.336;2023-09-30T06:32:06;17.80;;;5.80;;
23519;SDS011;11936;50.820;4.336;2023-09-30T06:34:32;12.95;;;6.05;;
23519;SDS011;11936;50.820;4.336;2023-09-30T06:36:59;14.48;;;6.43;;
23519;SDS011;11936;50.820;4.336;2023-09-30T06:39:25;16.50;;;6.00;;
23519;SDS011;11936;50.820;4.336;2023-09-30T06:41:50;17.77;;;6.05;;
23519;SDS011;11936;50.820;4.336;2023-09-30T06:44:16;21.67;;;6.57;;
23519;SDS011;11936;50.820;4.336;2023-09-30T06:46:42;14.40;;;6.20;;
23519;SDS011;11936;50.820;4.336;2023-09-30T06:49:08;22.23;;;7.47;;
23519;SDS011;11936;50.820;4.336;2023-09-30T06:51:34;19.65;;;6.50;;
23519;SDS011;11936;50.820;4.336;2023-09-30T06:53:59;21.35;;;6.32;;
23519;SDS011;11936;50.820;4.336;2023-09-30T06:56:25;15.75;;;6.07;;
23519;SDS011;11936;50.820;4.336;2023-09-30T06:58:51;20.50;;;6.13;;
23519;SDS011;11936;50.820;4.336;2023-09-30T07:01:17;14.98;;;5.88;;
23519;SDS011;11936;50.820;4.336;2023-09-30T07:03:43;20.20;;;5.75;;
23519;SDS011;11936;50.820;4.336;2023-09-30T07:06:09;21.35;;;6.00;;
23519;SDS011;11936;50.820;4.336;2023-09-30T07:08:35;17.92;;;5.97;;
23519;SDS011;11936;50.820;4.336;2023-09-30T07:11:00;15.18;;;6.10;;
23519;SDS011;11936;50.820;4.336;2023-09-30T07:13:27;21.92;;;6.22;;
23519;SDS011;11936;50.820;4.336;2023-09-30T07:15:52;14.55;;;5.50;;
23519;SDS011;11936;50.820;4.336;2023-09-30T07:18:18;11.23;;;5.32;;
23519;SDS011;11936;50.820;4.336;2023-09-30T07:20:44;15.60;;;6.10;;
23519;SDS011;11936;50.820;4.336;2023-09-30T07:23:09;18.33;;;5.95;;
23519;SDS011;11936;50.820;4.336;2023-09-30T07:25:35;16.77;;;5.30;;
23519;SDS011;11936;50.820;4.336;2023-09-30T07:28:01;17.60;;;6.43;;
23519;SDS011;11936;50.820;4.336;2023-09-30T07:30:27;15.25;;;5.57;;
23519;SDS011;11936;50.820;4.336;2023-09-30T07:32:52;18.25;;;5.55;;
23519;SDS011;11936;50.820;4.336;2023-09-30T07:35:18;15.63;;;6.28;;
23519;SDS011;11936;50.820;4.336;2023-09-30T07:37:44;16.15;;;5.78;;
23519;SDS011;11936;50.820;4.336;2023-09-30T07:40:10;18.40;;;6.55;;
23519;SDS011;11936;50.820;4.336;2023-09-30T07:42:37;11.45;;;6.20;;
23519;SDS011;11936;50.820;4.336;2023-09-30T07:45:03;16.70;;;6.15;;
23519;SDS011;11936;50.820;4.336;2023-09-30T07:47:29;19.67;;;6.43;;
23519;SDS011;11936;50.820;4.336;2023-09-30T07:49:59;13.48;;;5.32;;
23519;SDS011;11936;50.820;4.336;2023-09-30T07:52:27;12.80;;;5.50;;
23519;SDS011;11936;50.820;4.336;2023-09-30T07:54:53;22.10;;;6.32;;
23519;SDS011;11936;50.820;4.336;2023-09-30T07:57:19;17.27;;;5.60;;
23519;SDS011;11936;50.820;4.336;2023-09-30T07:59:45;17.65;;;6.35;;
23519;SDS011;11936;50.820;4.336;2023-09-30T08:02:11;14.73;;;5.05;;
23519;SDS011;11936;50.820;4.336;2023-09-30T08:04:36;18.85;;;5.93;;
23519;SDS011;11936;50.820;4.336;2023-09-30T08:07:02;20.48;;;7.10;;
23519;SDS011;11936;50.820;4.336;2023-09-30T08:09:28;17.15;;;6.22;;
23519;SDS011;11936;50.820;4.336;2023-09-30T08:11:53;11.82;;;5.70;;
23519;SDS011;11936;50.820;4.336;2023-09-30T08:14:19;19.33;;;6.47;;
23519;SDS011;11936;50.820;4.336;2023-09-30T08:16:45;17.73;;;6.68;;
23519;SDS011;11936;50.820;4.336;2023-09-30T08:19:10;17.75;;;6.47;;
23519;SDS011;11936;50.820;4.336;2023-09-30T08:21:39;20.08;;;7.13;;
23519;SDS011;11936;50.820;4.336;2023-09-30T08:24:05;20.15;;;6.75;;
23519;SDS011;11936;50.820;4.336;2023-09-30T08:26:30;16.02;;;6.53;;
23519;SDS011;11936;50.820;4.336;2023-09-30T08:28:56;20.75;;;6.18;;
23519;SDS011;11936;50.820;4.336;2023-09-30T08:31:22;17.83;;;7.18;;
23519;SDS011;11936;50.820;4.336;2023-09-30T08:33:48;21.23;;;7.82;;
23519;SDS011;11936;50.820;4.336;2023-09-30T08:36:14;21.65;;;6.50;;
23519;SDS011;11936;50.820;4.336;2023-09-30T08:38:40;15.63;;;6.60;;
23519;SDS011;11936;50.820;4.336;2023-09-30T08:41:06;19.20;;;6.88;;
23519;SDS011;11936;50.820;4.336;2023-09-30T08:43:36;20.25;;;7.22;;
23519;SDS011;11936;50.820;4.336;2023-09-30T08:46:04;14.85;;;6.47;;
23519;SDS011;11936;50.820;4.336;2023-09-30T08:48:31;19.63;;;6.63;;
23519;SDS011;11936;50.820;4.336;2023-09-30T08:50:58;17.92;;;6.90;;
23519;SDS011;11936;50.820;4.336;2023-09-30T08:53:25;15.35;;;6.65;;
23519;SDS011;11936;50.820;4.336;2023-09-30T08:55:54;20.60;;;6.70;;
23519;SDS011;11936;50.820;4.336;2023-09-30T08:58:24;14.15;;;6.35;;
23519;SDS011;11936;50.820;4.336;2023-09-30T09:00:52;17.90;;;6.38;;
23519;SDS011;11936;50.820;4.336;2023-09-30T09:03:19;14.48;;;6.53;;
23519;SDS011;11936;50.820;4.336;2023-09-30T09:05:45;22.63;;;7.38;;
23519;SDS011;11936;50.820;4.336;2023-09-30T09:08:21;15.50;;;6.32;;
23519;SDS011;11936;50.820;4.336;2023-09-30T09:10:55;16.15;;;5.95;;
23519;SDS011;11936;50.820;4.336;2023-09-30T09:13:22;11.80;;;5.68;;
23519;SDS011;11936;50.820;4.336;2023-09-30T09:16:07;22.80;;;6.53;;
23519;SDS011;11936;50.820;4.336;2023-09-30T09:18:34;15.07;;;6.15;;
23519;SDS011;11936;50.820;4.336;2023-09-30T09:23:43;16.13;;;5.28;;
23519;SDS011;11936;50.820;4.336;2023-09-30T09:26:11;15.98;;;5.55;;
23519;SDS011;11936;50.820;4.336;2023-09-30T09:28:38;14.32;;;5.50;;
23519;SDS011;11936;50.820;4.336;2023-09-30T09:31:22;15.35;;;5.55;;
23519;SDS011;11936;50.820;4.336;2023-09-30T09:33:52;14.80;;;5.68;;
23519;SDS011;11936;50.820;4.336;2023-09-30T09:36:18;16.08;;;5.25;;
23519;SDS011;11936;50.820;4.336;2023-09-30T09:38:45;17.02;;;5.53;;
23519;SDS011;11936;50.820;4.336;2023-09-30T09:41:13;20.92;;;5.20;;
23519;SDS011;11936;50.820;4.336;2023-09-30T09:43:41;14.05;;;5.07;;
23519;SDS011;11936;50.820;4.336;2023-09-30T09:46:08;14.20;;;4.55;;
23519;SDS011;11936;50.820;4.336;2023-09-30T09:48:37;15.07;;;4.93;;
23519;SDS011;11936;50.820;4.336;2023-09-30T09:51:05;10.77;;;4.47;;
23519;SDS011;11936;50.820;4.336;2023-09-30T09:53:36;15.98;;;4.50;;
23519;SDS011;11936;50.820;4.336;2023-09-30T09:56:04;11.95;;;3.65;;
23519;SDS011;11936;50.820;4.336;2023-09-30T09:58:35;13.10;;;3.97;;
23519;SDS011;11936;50.820;4.336;2023-09-30T10:01:02;16.23;;;4.45;;
23519;SDS011;11936;50.820;4.336;2023-09-30T10:03:28;14.07;;;5.15;;
23519;SDS011;11936;50.820;4.336;2023-09-30T10:05:54;11.95;;;3.55;;
23519;SDS011;11936;50.820;4.336;2023-09-30T10:08:20;16.02;;;4.40;;
23519;SDS011;11936;50.820;4.336;2023-09-30T10:10:52;15.88;;;4.57;;
23519;SDS011;11936;50.820;4.336;2023-09-30T10:21:37;15.20;;;3.97;;
23519;SDS011;11936;50.820;4.336;2023-09-30T10:24:27;10.30;;;3.67;;
23519;SDS011;11936;50.820;4.336;2023-09-30T10:29:57;9.18;;;3.03;;
23519;SDS011;11936;50.820;4.336;2023-09-30T10:35:20;12.93;;;4.55;;
23519;SDS011;11936;50.820;4.336;2023-09-30T10:40:52;14.68;;;3.72;;
23519;SDS011;11936;50.820;4.336;2023-09-30T10:48:54;13.45;;;3.08;;
23519;SDS011;11936;50.820;4.336;2023-09-30T10:51:20;11.60;;;3.30;;
23519;SDS011;11936;50.820;4.336;2023-09-30T10:53:53;7.95;;;3.33;;
23519;SDS011;11936;50.820;4.336;2023-09-30T10:56:28;11.70;;;4.30;;
23519;SDS011;11936;50.820;4.336;2023-09-30T10:58:57;14.32;;;3.40;;
23519;SDS011;11936;50.820;4.336;2023-09-30T11:01:24;10.70;;;3.15;;
23519;SDS011;11936;50.820;4.336;2023-09-30T11:03:50;9.75;;;4.10;;
23519;SDS011;11936;50.820;4.336;2023-09-30T11:06:28;18.13;;;4.13;;
23519;SDS011;11936;50.820;4.336;2023-09-30T11:08:55;13.68;;;4.10;;
23519;SDS011;11936;50.820;4.336;2023-09-30T11:11:37;13.93;;;3.90;;
23519;SDS011;11936;50.820;4.336;2023-09-30T11:14:21;13.60;;;3.67;;
23519;SDS011;11936;50.820;4.336;2023-09-30T11:16:51;10.10;;;4.25;;
23519;SDS011;11936;50.820;4.336;2023-09-30T11:19:18;10.43;;;3.50;;
23519;SDS011;11936;50.820;4.336;2023-09-30T11:21:49;13.98;;;3.80;;
23519;SDS011;11936;50.820;4.336;2023-09-30T11:24:16;10.97;;;3.50;;
23519;SDS011;11936;50.820;4.336;2023-09-30T11:26:43;18.58;;;4.45;;
23519;SDS011;11936;50.820;4.336;2023-09-30T11:29:14;7.40;;;2.97;;
23519;SDS011;11936;50.820;4.336;2023-09-30T11:31:41;9.70;;;3.20;;
23519;SDS011;11936;50.820;4.336;2023-09-30T11:34:10;13.55;;;3.60;;
23519;SDS011;11936;50.820;4.336;2023-09-30T11:36:40;11.40;;;3.47;;
23519;SDS011;11936;50.820;4.336;2023-09-30T11:39:21;14.82;;;3.58;;
23519;SDS011;11936;50.820;4.336;2023-09-30T11:41:50;9.27;;;3.78;;
23519;SDS011;11936;50.820;4.336;2023-09-30T11:44:17;11.27;;;3.42;;
23519;SDS011;11936;50.820;4.336;2023-09-30T11:46:56;11.13;;;3.50;;
23519;SDS011;11936;50.820;4.336;2023-09-30T11:49:36;15.20;;;3.45;;
23519;SDS011;11936;50.820;4.336;2023-09-30T11:52:12;11.88;;;3.42;;
23519;SDS011;11936;50.820;4.336;2023-09-30T11:57:08;10.50;;;3.70;;
23519;SDS011;11936;50.820;4.336;2023-09-30T11:59:40;9.13;;;3.97;;
23519;SDS011;11936;50.820;4.336;2023-09-30T12:02:06;11.90;;;3.50;;
23519;SDS011;11936;50.820;4.336;2023-09-30T12:04:36;6.63;;;2.90;;
23519;SDS011;11936;50.820;4.336;2023-09-30T12:07:05;7.70;;;3.47;;
23519;SDS011;11936;50.820;4.336;2023-09-30T12:09:32;6.90;;;2.90;;
23519;SDS011;11936;50.820;4.336;2023-09-30T12:12:00;10.90;;;3.60;;
23519;SDS011;11936;50.820;4.336;2023-09-30T12:14:26;10.73;;;3.60;;
23519;SDS011;11936;50.820;4.336;2023-09-30T12:19:20;9.02;;;3.40;;
23519;SDS011;11936;50.820;4.336;2023-09-30T12:21:46;13.15;;;3.40;;
23519;SDS011;11936;50.820;4.336;2023-09-30T12:24:16;11.52;;;2.65;;
23519;SDS011;11936;50.820;4.336;2023-09-30T12:26:48;14.43;;;3.70;;
23519;SDS011;11936;50.820;4.336;2023-09-30T12:29:18;10.77;;;3.40;;
23519;SDS011;11936;50.820;4.336;2023-09-30T12:31:46;11.40;;;3.03;;
23519;SDS011;11936;50.820;4.336;2023-09-30T12:34:12;11.55;;;3.42;;
23519;SDS011;11936;50.820;4.336;2023-09-30T12:36:38;12.80;;;3.78;;
23519;SDS011;11936;50.820;4.336;2023-09-30T12:39:05;8.27;;;2.58;;
23519;SDS011;11936;50.820;4.336;2023-09-30T12:41:44;6.72;;;2.85;;
23519;SDS011;11936;50.820;4.336;2023-09-30T12:44:10;7.72;;;3.00;;
23519;SDS011;11936;50.820;4.336;2023-09-30T12:46:36;10.02;;;3.00;;
23519;SDS011;11936;50.820;4.336;2023-09-30T12:49:04;8.07;;;2.88;;
23519;SDS011;11936;50.820;4.336;2023-09-30T12:51:30;7.93;;;2.70;;
23519;SDS011;11936;50.820;4.336;2023-09-30T12:53:56;12.23;;;2.92;;
23519;SDS011;11936;50.820;4.336;2023-09-30T12:56:23;6.80;;;2.83;;
23519;SDS011;11936;50.820;4.336;2023-09-30T12:58:49;5.65;;;2.63;;
23519;SDS011;11936;50.820;4.336;2023-09-30T13:01:15;6.57;;;3.10;;
23519;SDS011;11936;50.820;4.336;2023-09-30T13:03:43;8.18;;;2.72;;
23519;SDS011;11936;50.820;4.336;2023-09-30T13:06:11;8.98;;;2.83;;
23519;SDS011;11936;50.820;4.336;2023-09-30T13:08:37;13.25;;;2.97;;
23519;SDS011;11936;50.820;4.336;2023-09-30T13:11:04;12.68;;;3.00;;
23519;SDS011;11936;50.820;4.336;2023-09-30T13:13:30;8.75;;;3.00;;
23519;SDS011;11936;50.820;4.336;2023-09-30T13:18:26;9.43;;;3.33;;
23519;SDS011;11936;50.820;4.336;2023-09-30T13:20:52;7.82;;;2.78;;
23519;SDS011;11936;50.820;4.336;2023-09-30T13:23:18;6.47;;;2.72;;
23519;SDS011;11936;50.820;4.336;2023-09-30T13:25:44;10.32;;;3.00;;
23519;SDS011;11936;50.820;4.336;2023-09-30T13:28:10;8.63;;;2.75;;
23519;SDS011;11936;50.820;4.336;2023-09-30T13:30:36;7.60;;;3.17;;
23519;SDS011;11936;50.820;4.336;2023-09-30T13:33:02;7.28;;;2.90;;
23519;SDS011;11936;50.820;4.336;2023-09-30T13:35:28;9.73;;;3.50;;
23519;SDS011;11936;50.820;4.336;2023-09-30T13:37:54;7.78;;;2.72;;
23519;SDS011;11936;50.820;4.336;2023-09-30T13:40:19;9.35;;;2.72;;
23519;SDS011;11936;50.820;4.336;2023-09-30T13:42:45;11.43;;;3.00;;
23519;SDS011;11936;50.820;4.336;2023-09-30T13:45:11;11.18;;;3.05;;
23519;SDS011;11936;50.820;4.336;2023-09-30T13:47:37;8.85;;;3.30;;
23519;SDS011;11936;50.820;4.336;2023-09-30T13:50:03;8.57;;;2.97;;
23519;SDS011;11936;50.820;4.336;2023-09-30T13:52:31;10.55;;;2.58;;
23519;SDS011;11936;50.820;4.336;2023-09-30T13:57:26;7.85;;;2.90;;
23519;SDS011;11936;50.820;4.336;2023-09-30T13:59:52;12.13;;;3.22;;
23519;SDS011;11936;50.820;4.336;2023-09-30T14:02:18;9.30;;;3.15;;
23519;SDS011;11936;50.820;4.336;2023-09-30T14:04:44;10.40;;;3.15;;
23519;SDS011;11936;50.820;4.336;2023-09-30T14:07:10;6.28;;;2.85;;
23519;SDS011;11936;50.820;4.336;2023-09-30T14:09:35;7.35;;;2.65;;
23519;SDS011;11936;50.820;4.336;2023-09-30T14:12:01;9.18;;;2.83;;
23519;SDS011;11936;50.820;4.336;2023-09-30T14:14:30;13.43;;;3.17;;
23519;SDS011;11936;50.820;4.336;2023-09-30T14:16:57;6.93;;;2.60;;
23519;SDS011;11936;50.820;4.336;2023-09-30T14:19:22;10.07;;;2.97;;
23519;SDS011;11936;50.820;4.336;2023-09-30T14:21:48;6.82;;;2.60;;
23519;SDS011;11936;50.820;4.336;2023-09-30T14:24:14;8.23;;;2.60;;
23519;SDS011;11936;50.820;4.336;2023-09-30T14:26:40;8.07;;;2.50;;
23519;SDS011;11936;50.820;4.336;2023-09-30T14:29:06;11.20;;;2.75;;
23519;SDS011;11936;50.820;4.336;2023-09-30T14:31:31;8.63;;;2.67;;
23519;SDS011;11936;50.820;4.336;2023-09-30T14:33:57;6.97;;;2.58;;
23519;SDS011;11936;50.820;4.336;2023-09-30T14:36:22;5.25;;;2.20;;
23519;SDS011;11936;50.820;4.336;2023-09-30T14:38:48;5.28;;;2.25;;
23519;SDS011;11936;50.820;4.336;2023-09-30T14:41:14;11.82;;;2.40;;
23519;SDS011;11936;50.820;4.336;2023-09-30T14:43:40;9.02;;;2.78;;
23519;SDS011;11936;50.820;4.336;2023-09-30T14:46:06;7.43;;;2.75;;
23519;SDS011;11936;50.820;4.336;2023-09-30T14:48:33;6.80;;;3.03;;
23519;SDS011;11936;50.820;4.336;2023-09-30T14:51:00;7.82;;;2.92;;
23519;SDS011;11936;50.820;4.336;2023-09-30T14:53:27;6.78;;;2.60;;
23519;SDS011;11936;50.820;4.336;2023-09-30T14:55:53;9.70;;;3.05;;
23519;SDS011;11936;50.820;4.336;2023-09-30T14:58:19;6.75;;;2.85;;
23519;SDS011;11936;50.820;4.336;2023-09-30T15:00:44;9.45;;;3.17;;
23519;SDS011;11936;50.820;4.336;2023-09-30T15:03:10;7.13;;;2.30;;
23519;SDS011;11936;50.820;4.336;2023-09-30T15:05:36;9.82;;;2.92;;
23519;SDS011;11936;50.820;4.336;2023-09-30T15:08:01;6.18;;;2.67;;
23519;SDS011;11936;50.820;4.336;2023-09-30T15:10:28;5.75;;;2.45;;
23519;SDS011;11936;50.820;4.336;2023-09-30T15:12:54;11.07;;;3.10;;
23519;SDS011;11936;50.820;4.336;2023-09-30T15:15:20;10.07;;;2.70;;
23519;SDS011;11936;50.820;4.336;2023-09-30T15:17:46;13.50;;;4.55;;